createdAt,value
2023-05-10T00:00:08.838Z,9.242369
2023-05-10T00:01:08.837Z,9.242324
2023-05-10T00:02:08.844Z,9.242272
2023-05-10T00:03:08.895Z,9.242311
2023-05-10T00:04:08.830Z,9.242394
2023-05-10T00:05:08.818Z,9.242334
2023-05-10T00:06:08.789Z,9.242423
2023-05-10T00:07:08.848Z,9.242377
2023-05-10T00:08:08.820Z,9.242405
2023-05-10T00:09:08.800Z,9.242320
2023-05-10T00:10:08.771Z,9.242307
2023-05-10T00:11:08.768Z,9.242402
2023-05-10T00:12:08.783Z,9.242400
2023-05-10T00:13:08.788Z,9.242382
2023-05-10T00:14:08.748Z,9.242378
2023-05-10T00:15:08.757Z,9.242321
2023-05-10T00:16:08.799Z,9.242395
2023-05-10T00:17:08.714Z,9.242435
2023-05-10T00:18:08.798Z,9.242467
2023-05-10T00:19:08.717Z,9.242387
2023-05-10T00:20:09.011Z,9.242277
2023-05-10T00:21:08.680Z,9.242344
2023-05-10T00:22:08.692Z,9.242355
2023-05-10T00:23:08.688Z,9.242342
2023-05-10T00:24:08.681Z,9.242426
2023-05-10T00:25:08.713Z,9.242393
2023-05-10T00:26:08.661Z,9.242319
2023-05-10T00:27:08.628Z,9.242201
2023-05-10T00:28:08.672Z,9.242187
2023-05-10T00:29:08.650Z,9.242318
2023-05-10T00:30:08.642Z,9.242406
2023-05-10T00:31:08.672Z,9.242173
2023-05-10T00:32:08.642Z,9.242126
2023-05-10T00:33:08.627Z,9.242015
2023-05-10T00:34:08.593Z,9.242119
2023-05-10T00:35:08.595Z,9.242240
2023-05-10T00:36:08.587Z,9.242126
2023-05-10T00:37:08.566Z,9.242503
2023-05-10T00:38:08.563Z,9.242333
2023-05-10T00:39:08.548Z,9.242217
2023-05-10T00:40:08.555Z,9.242227
2023-05-10T00:41:08.567Z,9.242369
2023-05-10T00:42:08.526Z,9.242246
2023-05-10T00:43:08.530Z,9.242220
2023-05-10T00:44:08.534Z,9.242272
2023-05-10T00:45:08.530Z,9.242400
2023-05-10T00:46:08.559Z,9.242321
2023-05-10T00:47:08.512Z,9.242413
2023-05-10T00:49:08.488Z,9.242377
2023-05-10T00:50:08.524Z,9.242407
2023-05-10T00:51:08.478Z,9.242367
2023-05-10T00:52:08.456Z,9.242364
2023-05-10T00:53:08.470Z,9.242430
2023-05-10T00:54:08.458Z,9.242250
2023-05-10T00:55:08.472Z,9.242322
2023-05-10T00:56:08.450Z,9.242073
2023-05-10T00:57:08.429Z,9.242060
2023-05-10T00:58:08.421Z,9.242141
2023-05-10T00:59:08.443Z,9.242181
2023-05-10T01:00:08.417Z,9.242150
2023-05-10T01:01:08.428Z,9.242261
2023-05-10T01:02:08.417Z,9.242197
2023-05-10T01:03:08.513Z,9.242231
2023-05-10T01:04:08.409Z,9.242326
2023-05-10T01:05:08.427Z,9.242476
2023-05-10T01:06:08.373Z,9.242420
2023-05-10T01:07:08.373Z,9.242462
2023-05-10T01:08:08.373Z,9.242374
2023-05-10T01:09:08.352Z,9.242409
2023-05-10T01:10:08.378Z,9.242422
2023-05-10T01:11:08.358Z,9.242451
2023-05-10T01:12:08.506Z,9.242406
2023-05-10T01:13:08.363Z,9.242422
2023-05-10T01:14:08.363Z,9.242389
2023-05-10T01:15:08.312Z,9.242438
2023-05-10T01:16:08.367Z,9.242429
2023-05-10T01:17:08.367Z,9.242434
2023-05-10T01:18:08.296Z,9.242386
2023-05-10T01:19:08.277Z,9.242380
2023-05-10T01:20:08.274Z,9.242426
2023-05-10T01:21:08.270Z,9.242379
2023-05-10T01:22:08.287Z,9.242478
2023-05-10T01:23:08.268Z,9.242425
2023-05-10T01:24:08.244Z,9.242366
2023-05-10T01:25:08.241Z,9.242366
2023-05-10T01:26:08.225Z,9.242374
2023-05-10T01:27:08.234Z,9.242393
2023-05-10T01:28:08.228Z,9.242387
2023-05-10T01:29:08.206Z,9.242344
2023-05-10T01:30:21.746Z,9.242406
2023-05-10T01:31:10.202Z,9.242388
2023-05-10T01:32:08.211Z,9.242437
2023-05-10T01:33:08.228Z,9.242406
2023-05-10T01:34:08.182Z,9.242386
2023-05-10T01:35:08.156Z,9.242305
2023-05-10T01:36:08.179Z,9.242425
2023-05-10T01:37:08.193Z,9.242358
2023-05-10T01:38:08.138Z,9.242400
2023-05-10T01:39:08.132Z,9.242451
2023-05-10T01:40:08.131Z,9.242435
2023-05-10T01:41:08.130Z,9.242474
2023-05-10T01:42:08.115Z,9.242410
2023-05-10T01:43:08.102Z,9.242323
2023-05-10T01:44:08.113Z,9.242283
2023-05-10T01:45:08.085Z,9.242363
2023-05-10T01:46:08.133Z,9.242384
2023-05-10T01:47:08.072Z,9.242374
2023-05-10T01:48:08.124Z,9.242442
2023-05-10T01:49:08.067Z,9.242380
2023-05-10T01:50:08.069Z,9.242537
2023-05-10T01:51:08.078Z,9.242452
2023-05-10T01:52:08.051Z,9.242337
2023-05-10T01:53:08.033Z,9.242159
2023-05-10T01:54:08.036Z,9.242404
2023-05-10T01:55:08.054Z,9.242401
2023-05-10T01:56:08.018Z,9.242304
2023-05-10T01:57:08.004Z,9.242431
2023-05-10T01:58:08.002Z,9.242352
2023-05-10T01:59:07.994Z,9.242179
2023-05-10T02:00:08.024Z,9.242326
2023-05-10T02:01:08.025Z,9.242595
2023-05-10T02:02:08.007Z,9.242373
2023-05-10T02:03:08.043Z,9.242163
2023-05-10T02:04:08.041Z,9.241992
2023-05-10T02:05:07.991Z,9.242149
2023-05-10T02:06:07.952Z,9.242177
2023-05-10T02:07:07.938Z,9.242504
2023-05-10T02:08:07.942Z,9.242439
2023-05-10T02:09:07.974Z,9.242486
2023-05-10T02:10:07.957Z,9.242279
2023-05-10T02:11:07.925Z,9.242441
2023-05-10T02:12:08.002Z,9.242600
2023-05-10T02:13:07.979Z,9.242318
2023-05-10T02:14:07.942Z,9.242422
2023-05-10T02:15:07.922Z,9.242385
2023-05-10T02:16:07.905Z,9.242545
2023-05-10T02:17:07.915Z,9.242488
2023-05-10T02:18:07.994Z,9.242393
2023-05-10T02:19:07.890Z,9.242390
2023-05-10T02:20:07.850Z,9.242430
2023-05-10T02:21:07.868Z,9.242404
2023-05-10T02:22:07.837Z,9.242432
2023-05-10T02:23:07.839Z,9.242434
2023-05-10T02:24:07.815Z,9.242427
2023-05-10T02:25:07.826Z,9.242419
2023-05-10T02:26:07.841Z,9.242340
2023-05-10T02:27:07.798Z,9.242388
2023-05-10T02:28:07.830Z,9.242374
2023-05-10T02:29:07.818Z,9.242381
2023-05-10T02:30:07.781Z,9.242396
2023-05-10T02:31:07.762Z,9.242404
2023-05-10T02:32:07.895Z,9.242421
2023-05-10T02:33:07.781Z,9.242386
2023-05-10T02:34:07.760Z,9.242464
2023-05-10T02:35:07.766Z,9.242408
2023-05-10T02:36:07.737Z,9.242393
2023-05-10T02:37:07.747Z,9.242432
2023-05-10T02:38:07.733Z,9.242426
2023-05-10T02:39:07.768Z,9.242432
2023-05-10T02:40:07.702Z,9.242410
2023-05-10T02:41:07.722Z,9.242395
2023-05-10T02:42:07.734Z,9.242393
2023-05-10T02:43:07.695Z,9.242393
2023-05-10T02:44:07.700Z,9.242395
2023-05-10T02:45:07.683Z,9.242371
2023-05-10T02:46:07.774Z,9.242388
2023-05-10T02:47:07.713Z,9.242363
2023-05-10T02:48:07.718Z,9.242366
2023-05-10T02:49:07.650Z,9.242398
2023-05-10T02:50:07.663Z,9.242362
2023-05-10T02:51:07.657Z,9.242365
2023-05-10T02:52:07.631Z,9.242367
2023-05-10T02:53:07.653Z,9.242339
2023-05-10T02:54:07.629Z,9.242309
2023-05-10T02:55:07.648Z,9.242349
2023-05-10T02:56:07.706Z,9.242409
2023-05-10T02:57:07.589Z,9.242433
2023-05-10T02:58:07.576Z,9.242464
2023-05-10T02:59:07.576Z,9.242418
2023-05-10T03:00:07.607Z,9.242385
2023-05-10T03:01:07.583Z,9.242389
2023-05-10T03:02:07.552Z,9.242437
2023-05-10T03:03:07.589Z,9.242426
2023-05-10T03:04:07.564Z,9.242442
2023-05-10T03:05:07.570Z,9.242439
2023-05-10T03:06:07.510Z,9.242382
2023-05-10T03:07:07.507Z,9.242319
2023-05-10T03:08:07.566Z,9.242411
2023-05-10T03:09:07.515Z,9.242351
2023-05-10T03:10:07.490Z,9.242369
2023-05-10T03:11:07.532Z,9.242342
2023-05-10T03:12:07.469Z,9.242329
2023-05-10T03:13:07.539Z,9.242393
2023-05-10T03:14:07.494Z,9.242407
2023-05-10T03:15:07.495Z,9.242352
2023-05-10T03:16:07.540Z,9.242332
2023-05-10T03:17:07.461Z,9.242364
2023-05-10T03:18:07.526Z,9.242332
2023-05-10T03:19:07.456Z,9.242309
2023-05-10T03:20:07.454Z,9.242354
2023-05-10T03:21:07.416Z,9.242445
2023-05-10T03:22:07.415Z,9.242388
2023-05-10T03:23:07.429Z,9.242237
2023-05-10T03:24:07.432Z,9.242296
2023-05-10T03:25:07.384Z,9.242282
2023-05-10T03:26:07.385Z,9.242204
2023-05-10T03:27:07.366Z,9.242311
2023-05-10T03:28:07.375Z,9.242332
2023-05-10T03:29:07.371Z,9.242283
2023-05-10T03:30:07.358Z,9.242283
2023-05-10T03:31:07.381Z,9.242339
2023-05-10T03:32:07.391Z,9.242457
2023-05-10T03:33:07.463Z,9.242501
2023-05-10T03:34:07.317Z,9.242459
2023-05-10T03:35:07.323Z,9.242355
2023-05-10T03:36:07.316Z,9.242383
2023-05-10T03:37:07.309Z,9.242416
2023-05-10T03:38:07.311Z,9.242322
2023-05-10T03:39:07.297Z,9.242161
2023-05-10T03:40:07.273Z,9.242174
2023-05-10T03:41:07.259Z,9.242219
2023-05-10T03:42:07.272Z,9.242396
2023-05-10T03:43:07.254Z,9.242335
2023-05-10T03:44:07.244Z,9.242457
2023-05-10T03:45:07.243Z,9.242538
2023-05-10T03:46:07.282Z,9.242496
2023-05-10T03:47:07.335Z,9.242503
2023-05-10T03:48:07.272Z,9.242505
2023-05-10T03:49:07.241Z,9.242431
2023-05-10T03:50:07.206Z,9.242433
2023-05-10T03:51:07.235Z,9.242422
2023-05-10T03:52:07.245Z,9.242413
2023-05-10T03:53:07.185Z,9.242482
2023-05-10T03:54:07.202Z,9.242321
2023-05-10T03:55:07.195Z,9.242451
2023-05-10T03:56:07.199Z,9.242435
2023-05-10T03:57:07.161Z,9.242279
2023-05-10T03:58:07.174Z,9.242399
2023-05-10T03:59:07.156Z,9.242404
2023-05-10T04:00:07.137Z,9.242380
2023-05-10T04:01:07.166Z,9.242403
2023-05-10T04:02:07.228Z,9.242435
2023-05-10T04:03:07.218Z,9.242404
2023-05-10T04:04:07.143Z,9.242450
2023-05-10T04:05:07.141Z,9.242513
2023-05-10T04:06:07.169Z,9.242531
2023-05-10T04:07:07.104Z,9.242460
2023-05-10T04:08:07.169Z,9.242409
2023-05-10T04:09:07.091Z,9.242373
2023-05-10T04:10:07.129Z,9.242419
2023-05-10T04:11:07.069Z,9.242375
2023-05-10T04:12:08.958Z,9.242389
2023-05-10T04:13:07.065Z,9.242403
2023-05-10T04:14:07.058Z,9.242429
2023-05-10T04:15:07.080Z,9.242432
2023-05-10T04:16:07.070Z,9.242399
2023-05-10T04:17:07.114Z,9.242412
2023-05-10T04:18:08.681Z,9.242382
2023-05-10T04:19:07.064Z,9.242353
2023-05-10T04:20:07.033Z,9.242359
2023-05-10T04:21:06.996Z,9.242388
2023-05-10T04:22:07.024Z,9.242513
2023-05-10T04:23:06.981Z,9.242447
2023-05-10T04:24:07.011Z,9.242433
2023-05-10T04:25:06.995Z,9.242350
2023-05-10T04:26:06.960Z,9.242370
2023-05-10T04:27:06.966Z,9.242374
2023-05-10T04:28:06.975Z,9.242355
2023-05-10T04:29:07.957Z,9.242352
2023-05-10T04:30:06.923Z,9.242379
2023-05-10T04:31:06.994Z,9.242371
2023-05-10T04:32:07.002Z,9.242369
2023-05-10T04:33:08.017Z,9.242313
2023-05-10T04:34:07.797Z,9.242351
2023-05-10T04:35:07.787Z,9.242358
2023-05-10T04:36:07.057Z,9.242449
2023-05-10T04:37:07.832Z,9.242405
2023-05-10T04:38:07.794Z,9.242388
2023-05-10T04:39:07.775Z,9.242403
2023-05-10T04:40:07.780Z,9.242353
2023-05-10T04:41:08.295Z,9.242347
2023-05-10T04:42:06.841Z,9.242393
2023-05-10T04:43:06.905Z,9.242444
2023-05-10T04:44:06.832Z,9.242323
2023-05-10T04:45:07.080Z,9.242379
2023-05-10T04:46:07.815Z,9.242421
2023-05-10T04:47:06.988Z,9.242420
2023-05-10T04:48:07.832Z,9.242339
2023-05-10T04:49:07.785Z,9.242347
2023-05-10T04:50:07.784Z,9.242438
2023-05-10T04:51:08.282Z,9.242465
2023-05-10T04:52:07.778Z,9.242426
2023-05-10T04:53:06.814Z,9.242426
2023-05-10T04:54:06.997Z,9.242363
2023-05-10T04:55:08.110Z,9.242413
2023-05-10T04:56:06.891Z,9.242420
2023-05-10T04:57:07.716Z,9.242413
2023-05-10T04:58:07.112Z,9.242323
2023-05-10T04:59:06.983Z,9.242319
2023-05-10T05:00:06.820Z,9.242382
2023-05-10T05:01:06.828Z,9.242384
2023-05-10T05:02:06.835Z,9.242382
2023-05-10T05:03:06.974Z,9.242362
2023-05-10T05:04:06.697Z,9.242377
2023-05-10T05:05:07.894Z,9.242397
2023-05-10T05:06:06.729Z,9.242375
2023-05-10T05:07:06.674Z,9.242416
2023-05-10T05:08:06.676Z,9.242373
2023-05-10T05:09:06.688Z,9.242416
2023-05-10T05:10:06.655Z,9.242448
2023-05-10T05:11:06.682Z,9.242423
2023-05-10T05:12:06.663Z,9.242424
2023-05-10T05:13:06.732Z,9.242389
2023-05-10T05:14:06.643Z,9.242354
2023-05-10T05:15:09.678Z,9.242440
2023-05-10T05:16:08.319Z,9.242382
2023-05-10T05:17:06.618Z,9.242447
2023-05-10T05:18:07.225Z,9.242448
2023-05-10T05:19:06.617Z,9.242459
2023-05-10T05:20:06.615Z,9.242425
2023-05-10T05:21:07.998Z,9.242428
2023-05-10T05:22:06.651Z,9.242479
2023-05-10T05:23:07.291Z,9.242485
2023-05-10T05:24:07.303Z,9.242406
2023-05-10T05:25:06.629Z,9.242386
2023-05-10T05:26:07.280Z,9.242502
2023-05-10T05:27:07.323Z,9.242422
2023-05-10T05:28:07.304Z,9.242401
2023-05-10T05:29:07.287Z,9.242414
2023-05-10T05:30:07.783Z,9.242369
2023-05-10T05:31:07.355Z,9.242381
2023-05-10T05:32:07.335Z,9.242347
2023-05-10T05:33:07.342Z,9.242385
2023-05-10T05:34:06.515Z,9.242416
2023-05-10T05:35:06.509Z,9.242382
2023-05-10T05:36:07.250Z,9.242482
2023-05-10T05:37:06.640Z,9.242424
2023-05-10T05:38:06.470Z,9.242467
2023-05-10T05:39:06.492Z,9.242450
2023-05-10T05:40:06.455Z,9.242433
2023-05-10T05:41:06.456Z,9.242413
2023-05-10T05:42:06.446Z,9.242424
2023-05-10T05:43:06.455Z,9.242467
2023-05-10T05:44:06.447Z,9.242429
2023-05-10T05:45:07.282Z,9.242463
2023-05-10T05:46:06.502Z,9.242387
2023-05-10T05:47:06.425Z,9.242422
2023-05-10T05:48:06.468Z,9.242406
2023-05-10T05:49:06.401Z,9.242400
2023-05-10T05:50:07.280Z,9.242450
2023-05-10T05:51:07.538Z,9.242442
2023-05-10T05:52:07.398Z,9.242349
2023-05-10T05:53:07.321Z,9.242397
2023-05-10T05:54:06.367Z,9.242392
2023-05-10T05:55:06.386Z,9.242377
2023-05-10T05:56:07.450Z,9.242360
2023-05-10T05:57:06.369Z,9.242377
2023-05-10T05:58:06.349Z,9.242368
2023-05-10T05:59:06.412Z,9.242385
2023-05-10T06:00:06.331Z,9.242422
2023-05-10T06:01:06.319Z,9.242414
2023-05-10T06:02:06.536Z,9.242399
2023-05-10T06:03:06.379Z,9.242411
2023-05-10T06:04:06.356Z,9.242415
2023-05-10T06:05:06.277Z,9.242451
2023-05-10T06:06:06.304Z,9.242366
2023-05-10T06:07:06.288Z,9.242407
2023-05-10T06:08:06.259Z,9.242415
2023-05-10T06:09:06.267Z,9.242421
2023-05-10T06:10:06.240Z,9.242400
2023-05-10T06:11:06.254Z,9.242418
2023-05-10T06:12:06.267Z,9.242402
2023-05-10T06:13:06.270Z,9.242434
2023-05-10T06:14:06.212Z,9.242415
2023-05-10T06:15:06.221Z,9.242430
2023-05-10T06:16:06.222Z,9.242507
2023-05-10T06:17:06.294Z,9.242476
2023-05-10T06:18:06.290Z,9.242393
2023-05-10T06:19:06.187Z,9.242377
2023-05-10T06:20:06.178Z,9.242336
2023-05-10T06:21:06.205Z,9.242330
2023-05-10T06:22:06.172Z,9.242321
2023-05-10T06:23:06.160Z,9.242365
2023-05-10T06:24:06.170Z,9.242377
2023-05-10T06:25:06.196Z,9.242405
2023-05-10T06:26:06.162Z,9.242375
2023-05-10T06:27:06.161Z,9.242412
2023-05-10T06:28:06.144Z,9.242503
2023-05-10T06:29:06.121Z,9.242480
2023-05-10T06:30:12.782Z,9.242399
2023-05-10T06:31:08.136Z,9.242409
2023-05-10T06:32:06.105Z,9.242405
2023-05-10T06:33:06.162Z,9.242321
2023-05-10T06:34:06.069Z,9.242379
2023-05-10T06:35:06.154Z,9.242371
2023-05-10T06:36:06.086Z,9.242361
2023-05-10T06:37:06.056Z,9.242459
2023-05-10T06:38:06.060Z,9.242373
2023-05-10T06:39:06.113Z,9.242330
2023-05-10T06:40:06.066Z,9.242340
2023-05-10T06:41:06.034Z,9.242353
2023-05-10T06:42:06.034Z,9.242366
2023-05-10T06:43:06.018Z,9.242391
2023-05-10T06:44:06.051Z,9.242407
2023-05-10T06:45:06.018Z,9.242367
2023-05-10T06:46:06.058Z,9.242335
2023-05-10T06:47:06.052Z,9.242351
2023-05-10T06:48:06.056Z,9.242348
2023-05-10T06:49:05.995Z,9.242399
2023-05-10T06:50:05.991Z,9.242416
2023-05-10T06:51:06.018Z,9.242413
2023-05-10T06:52:05.967Z,9.242380
2023-05-10T06:53:05.989Z,9.242414
2023-05-10T06:54:05.998Z,9.242388
2023-05-10T06:55:06.050Z,9.242383
2023-05-10T06:56:05.959Z,9.242345
2023-05-10T06:57:16.068Z,9.242410
2023-05-10T06:58:07.937Z,9.242365
2023-05-10T06:59:05.972Z,9.242341
2023-05-10T07:00:06.059Z,9.242375
2023-05-10T07:01:05.928Z,9.242505
2023-05-10T07:02:05.941Z,9.242339
2023-05-10T07:03:06.238Z,9.242295
2023-05-10T07:04:05.908Z,9.242444
2023-05-10T07:05:05.886Z,9.242328
2023-05-10T07:06:05.865Z,9.242358
2023-05-10T07:07:05.861Z,9.242407
2023-05-10T07:08:05.877Z,9.242421
2023-05-10T07:09:05.862Z,9.242337
2023-05-10T07:10:05.843Z,9.242400
2023-05-10T07:11:05.827Z,9.242430
2023-05-10T07:12:06.837Z,9.242455
2023-05-10T07:13:05.911Z,9.242388
2023-05-10T07:14:05.810Z,9.242422
2023-05-10T07:15:05.798Z,9.242415
2023-05-10T07:16:05.830Z,9.242471
2023-05-10T07:17:05.825Z,9.242390
2023-05-10T07:18:05.923Z,9.242363
2023-05-10T07:19:05.774Z,9.242373
2023-05-10T07:20:05.758Z,9.242360
2023-05-10T07:21:05.762Z,9.242345
2023-05-10T07:22:05.797Z,9.242358
2023-05-10T07:23:05.741Z,9.242372
2023-05-10T07:24:05.732Z,9.242405
2023-05-10T07:25:05.744Z,9.242288
2023-05-10T07:26:05.744Z,9.242417
2023-05-10T07:27:05.759Z,9.242366
2023-05-10T07:28:05.717Z,9.242386
2023-05-10T07:29:05.686Z,9.242329
2023-05-10T07:30:06.694Z,9.242338
2023-05-10T07:31:05.769Z,9.242332
2023-05-10T07:32:05.712Z,9.242376
2023-05-10T07:33:05.728Z,9.242378
2023-05-10T07:34:05.710Z,9.242378
2023-05-10T07:35:05.655Z,9.242371
2023-05-10T07:36:05.669Z,9.242373
2023-05-10T07:37:05.656Z,9.242367
2023-05-10T07:38:05.637Z,9.242393
2023-05-10T07:39:05.633Z,9.242359
2023-05-10T07:40:05.752Z,9.242293
2023-05-10T07:41:05.635Z,9.242324
2023-05-10T07:42:05.651Z,9.242312
2023-05-10T07:43:05.601Z,9.242322
2023-05-10T07:44:05.586Z,9.242358
2023-05-10T07:45:05.600Z,9.242316
2023-05-10T07:46:05.610Z,9.242344
2023-05-10T07:47:05.566Z,9.242343
2023-05-10T07:48:05.624Z,9.242325
2023-05-10T07:49:05.577Z,9.242422
2023-05-10T07:50:05.581Z,9.242388
2023-05-10T07:51:05.600Z,9.242369
2023-05-10T07:52:05.544Z,9.242350
2023-05-10T07:53:05.533Z,9.242367
2023-05-10T07:54:05.553Z,9.242352
2023-05-10T07:55:05.533Z,9.242374
2023-05-10T07:56:05.514Z,9.242362
2023-05-10T07:57:05.502Z,9.242395
2023-05-10T07:58:05.560Z,9.242398
2023-05-10T07:59:05.499Z,9.242357
2023-05-10T08:00:05.491Z,9.242403
2023-05-10T08:01:05.481Z,9.242362
2023-05-10T08:02:05.480Z,9.242317
2023-05-10T08:03:05.525Z,9.242353
2023-05-10T08:04:05.572Z,9.242371
2023-05-10T08:05:05.437Z,9.242287
2023-05-10T08:06:05.510Z,9.242302
2023-05-10T08:07:05.421Z,9.242328
2023-05-10T08:08:05.829Z,9.242286
2023-05-10T08:09:05.431Z,9.242337
2023-05-10T08:10:05.396Z,9.242277
2023-05-10T08:11:05.411Z,9.242574
2023-05-10T08:12:05.390Z,9.242572
2023-05-10T08:13:05.415Z,9.242600
2023-05-10T08:14:06.256Z,9.242447
2023-05-10T08:15:05.353Z,9.242277
2023-05-10T08:16:05.388Z,9.242304
2023-05-10T08:17:05.457Z,9.242364
2023-05-10T08:18:05.418Z,9.242060
2023-05-10T08:19:05.438Z,9.242025
2023-05-10T08:20:05.321Z,9.242255
2023-05-10T08:21:05.314Z,9.242331
2023-05-10T08:22:05.325Z,9.242318
2023-05-10T08:23:05.322Z,9.242511
2023-05-10T08:24:05.300Z,9.242329
2023-05-10T08:25:05.330Z,9.242195
2023-05-10T08:26:05.289Z,9.242172
2023-05-10T08:27:05.295Z,9.242148
2023-05-10T08:28:05.260Z,9.242203
2023-05-10T08:29:05.271Z,9.242243
2023-05-10T08:30:05.257Z,9.242254
2023-05-10T08:31:05.268Z,9.242194
2023-05-10T08:32:05.261Z,9.242126
2023-05-10T08:33:05.317Z,9.242030
2023-05-10T08:34:05.229Z,9.242137
2023-05-10T08:35:05.237Z,9.242269
2023-05-10T08:36:05.398Z,9.242236
2023-05-10T08:37:05.233Z,9.242268
2023-05-10T08:38:05.199Z,9.242194
2023-05-10T08:39:07.727Z,9.242205
2023-05-10T08:40:06.177Z,9.242291
2023-05-10T08:41:05.462Z,9.242364
2023-05-10T08:42:05.180Z,9.242153
2023-05-10T08:43:05.153Z,9.241961
2023-05-10T08:44:05.166Z,9.242280
2023-05-10T08:45:05.145Z,9.242368
2023-05-10T08:46:05.410Z,9.242284
2023-05-10T08:47:05.202Z,9.242368
2023-05-10T08:48:05.157Z,9.242306
2023-05-10T08:49:05.114Z,9.242278
2023-05-10T08:50:05.142Z,9.242418
2023-05-10T08:51:05.149Z,9.242475
2023-05-10T08:52:05.128Z,9.242421
2023-05-10T08:53:05.069Z,9.242470
2023-05-10T08:54:05.139Z,9.242389
2023-05-10T08:55:05.083Z,9.242474
2023-05-10T08:56:05.066Z,9.242525
2023-05-10T08:57:05.054Z,9.242418
2023-05-10T08:58:05.044Z,9.242539
2023-05-10T08:59:05.039Z,9.242338
2023-05-10T09:00:05.050Z,9.242392
2023-05-10T09:01:05.080Z,9.242410
2023-05-10T09:02:05.022Z,9.242503
2023-05-10T09:03:05.039Z,9.242441
2023-05-10T09:04:05.035Z,9.242465
2023-05-10T09:05:05.056Z,9.242420
2023-05-10T09:06:04.995Z,9.242369
2023-05-10T09:07:04.974Z,9.242459
2023-05-10T09:08:04.992Z,9.242371
2023-05-10T09:09:05.265Z,9.242324
2023-05-10T09:10:04.968Z,9.242386
2023-05-10T09:11:04.948Z,9.242356
2023-05-10T09:12:04.945Z,9.242412
2023-05-10T09:13:04.942Z,9.242415
2023-05-10T09:14:04.948Z,9.242461
2023-05-10T09:15:04.980Z,9.242503
2023-05-10T09:16:17.451Z,9.242410
2023-05-10T09:17:06.949Z,9.242403
2023-05-10T09:18:04.939Z,9.242381
2023-05-10T09:19:04.989Z,9.242502
2023-05-10T09:20:04.901Z,9.242447
2023-05-10T09:21:04.919Z,9.242426
2023-05-10T09:22:04.896Z,9.242483
2023-05-10T09:23:04.893Z,9.242573
2023-05-10T09:24:04.885Z,9.242632
2023-05-10T09:25:04.863Z,9.242514
2023-05-10T09:26:04.858Z,9.242530
2023-05-10T09:27:04.850Z,9.242599
2023-05-10T09:28:05.865Z,9.242605
2023-05-10T09:29:04.838Z,9.242651
2023-05-10T09:30:04.854Z,9.242682
2023-05-10T09:31:04.837Z,9.242540
2023-05-10T09:32:04.829Z,9.242489
2023-05-10T09:33:04.896Z,9.242397
2023-05-10T09:34:04.796Z,9.242384
2023-05-10T09:35:04.774Z,9.242411
2023-05-10T09:36:05.778Z,9.242329
2023-05-10T09:37:04.777Z,9.242332
2023-05-10T09:38:04.761Z,9.242325
2023-05-10T09:39:04.759Z,9.242483
2023-05-10T09:40:04.745Z,9.242453
2023-05-10T09:41:04.735Z,9.242393
2023-05-10T09:42:04.802Z,9.242498
2023-05-10T09:43:04.724Z,9.242408
2023-05-10T09:44:04.712Z,9.242420
2023-05-10T09:45:04.752Z,9.242392
2023-05-10T09:46:04.775Z,9.242430
2023-05-10T09:47:04.712Z,9.242255
2023-05-10T09:48:04.767Z,9.242416
2023-05-10T09:49:04.689Z,9.242467
2023-05-10T09:50:04.687Z,9.242516
2023-05-10T09:51:04.695Z,9.242471
2023-05-10T09:52:04.703Z,9.242419
2023-05-10T09:53:04.866Z,9.242290
2023-05-10T09:54:04.652Z,9.242223
2023-05-10T09:55:04.715Z,9.242439
2023-05-10T09:56:04.659Z,9.242616
2023-05-10T09:57:04.639Z,9.242385
2023-05-10T09:58:04.616Z,9.242309
2023-05-10T09:59:04.634Z,9.242249
2023-05-10T10:00:04.650Z,9.242392
2023-05-10T10:01:04.703Z,9.242366
2023-05-10T10:02:04.659Z,9.242494
2023-05-10T10:03:04.635Z,9.242418
2023-05-10T10:04:04.577Z,9.242440
2023-05-10T10:05:04.687Z,9.242400
2023-05-10T10:06:04.560Z,9.242409
2023-05-10T10:07:04.884Z,9.242420
2023-05-10T10:08:04.546Z,9.242363
2023-05-10T10:09:04.545Z,9.242352
2023-05-10T10:10:04.582Z,9.242358
2023-05-10T10:11:04.551Z,9.242305
2023-05-10T10:12:04.524Z,9.242270
2023-05-10T10:13:04.611Z,9.242253
2023-05-10T10:14:04.528Z,9.242392
2023-05-10T10:15:04.519Z,9.242365
2023-05-10T10:16:04.564Z,9.242406
2023-05-10T10:17:08.322Z,9.242370
2023-05-10T10:18:05.598Z,9.242397
2023-05-10T10:19:04.524Z,9.242415
2023-05-10T10:20:04.542Z,9.242378
2023-05-10T10:21:04.471Z,9.242397
2023-05-10T10:22:04.493Z,9.242474
2023-05-10T10:23:04.480Z,9.242402
2023-05-10T10:24:04.464Z,9.242393
2023-05-10T10:25:04.423Z,9.242365
2023-05-10T10:26:05.422Z,9.242403
2023-05-10T10:27:04.453Z,9.242422
2023-05-10T10:28:04.457Z,9.242409
2023-05-10T10:29:04.423Z,9.242400
2023-05-10T10:30:04.412Z,9.242288
2023-05-10T10:31:04.419Z,9.242233
2023-05-10T10:32:04.393Z,9.242350
2023-05-10T10:33:07.938Z,9.242254
2023-05-10T10:34:06.373Z,9.242358
2023-05-10T10:35:04.359Z,9.242356
2023-05-10T10:36:04.367Z,9.242457
2023-05-10T10:37:04.377Z,9.242455
2023-05-10T10:38:04.380Z,9.242441
2023-05-10T10:39:04.412Z,9.242355
2023-05-10T10:40:04.329Z,9.242365
2023-05-10T10:41:04.366Z,9.242369
2023-05-10T10:42:04.368Z,9.242333
2023-05-10T10:43:04.346Z,9.242282
2023-05-10T10:44:04.299Z,9.242327
2023-05-10T10:45:04.320Z,9.242303
2023-05-10T10:46:04.291Z,9.242339
2023-05-10T10:47:04.323Z,9.242427
2023-05-10T10:48:04.287Z,9.242385
2023-05-10T10:49:04.253Z,9.242347
2023-05-10T10:50:04.273Z,9.242398
2023-05-10T10:51:04.278Z,9.242313
2023-05-10T10:52:04.273Z,9.242369
2023-05-10T10:53:04.325Z,9.242422
2023-05-10T10:54:04.251Z,9.242406
2023-05-10T10:55:04.218Z,9.242395
2023-05-10T10:56:04.235Z,9.242352
2023-05-10T10:57:04.214Z,9.242369
2023-05-10T10:58:04.189Z,9.242373
2023-05-10T10:59:04.193Z,9.242360
2023-05-10T11:00:04.177Z,9.242338
2023-05-10T11:01:04.199Z,9.242351
2023-05-10T11:02:04.156Z,9.242385
2023-05-10T11:03:04.201Z,9.242352
2023-05-10T11:04:04.173Z,9.242340
2023-05-10T11:05:05.216Z,9.242382
2023-05-10T11:06:05.155Z,9.242368
2023-05-10T11:07:04.113Z,9.242423
2023-05-10T11:08:04.126Z,9.242366
2023-05-10T11:09:04.113Z,9.242403
2023-05-10T11:10:04.128Z,9.242350
2023-05-10T11:11:04.125Z,9.242365
2023-05-10T11:12:04.084Z,9.242407
2023-05-10T11:13:04.083Z,9.242375
2023-05-10T11:14:04.091Z,9.242345
2023-05-10T11:15:04.081Z,9.242313
2023-05-10T11:16:04.067Z,9.242366
2023-05-10T11:17:04.101Z,9.242351
2023-05-10T11:18:04.054Z,9.242379
2023-05-10T11:19:04.240Z,9.242446
2023-05-10T11:20:04.064Z,9.242493
2023-05-10T11:21:04.068Z,9.242325
2023-05-10T11:22:04.026Z,9.242388
2023-05-10T11:23:04.013Z,9.242409
2023-05-10T11:24:04.037Z,9.242330
2023-05-10T11:25:03.995Z,9.242329
2023-05-10T11:26:03.999Z,9.242344
2023-05-10T11:27:03.978Z,9.242361
2023-05-10T11:28:05.244Z,9.242364
2023-05-10T11:29:03.998Z,9.242379
2023-05-10T11:30:05.067Z,9.242399
2023-05-10T11:31:03.974Z,9.242399
2023-05-10T11:32:03.939Z,9.242360
2023-05-10T11:33:04.008Z,9.242417
2023-05-10T11:34:04.041Z,9.242376
2023-05-10T11:35:03.934Z,9.242338
2023-05-10T11:36:04.941Z,9.242390
2023-05-10T11:37:03.925Z,9.242375
2023-05-10T11:38:03.970Z,9.242330
2023-05-10T11:39:03.921Z,9.242302
2023-05-10T11:40:03.980Z,9.242404
2023-05-10T11:41:03.976Z,9.242403
2023-05-10T11:42:03.910Z,9.242347
2023-05-10T11:43:03.901Z,9.242363
2023-05-10T11:44:03.878Z,9.242332
2023-05-10T11:45:03.882Z,9.242324